Cottbus, Germany

11:25 PM CEST on March 29, 2015 (GMT +0200)
Cottbus-Schmellwitz | | Change Station
CLOSE
Current Station
Personal Weather Station
Location: Cottbus, Brandenburg
Elevation: 223 ft
Nearby Weather Stations

Elev 223 ft 51.78 °N, 14.33 °E | Updated 5 seconds ago

Rain Showers
Showers Rain
48.2 °F
Feels Like 47 °F
N
4.0
Wind Variable Wind from South
Gusts 16.0 mph

Today
High -- | Low -- °F
--% Chance of Precip.
Yesterday
High -- | Low -- °F
Precip. -- in
6:45 AM 7:30 PM
Waxing Gibbous, 74% visible
Pressure 29.24 in
Visibility 6.2 miles
Clouds Few 700 ft
Scattered Clouds 2600 ft
Mostly Cloudy 4400 ft
Windchill 47 °F
Dew Point 46 °F
Humidity 93%
Rainfall 0.17 in
Snow Depth Not available.
UV 0 out of 12
Pollen Not available.
Air Quality Not available.
Flu Activity Not available.
METAR EDDC 292120Z 23021G35KT 210V270 9999 SHRA FEW007 SCT026 BKN044CB 10/08 Q0990

More Conditions Fewer Conditions

Pressure 29.24 in
Visibility 6.2 miles
Clouds Few 700 ft
Scattered Clouds 2600 ft
Mostly Cloudy 4400 ft
Windchill 47 °F
Dew Point 46 °F
Humidity 93%
Rainfall 0.17 in
Snow Depth Not available.
UV 0 out of 12
Pollen Not available.
Air Quality Not available.
Flu Activity Not available.
METAR EDDC 292120Z 23021G35KT 210V270 9999 SHRA FEW007 SCT026 BKN044CB 10/08 Q0990

More Conditions Fewer Conditions

10-Day Weather Forecast

Almanac

Astronomy

Mar. 29, 2015 Rise Set
Actual Time
Civil Twilight
Nautical Twilight
Astronomical Twilight
Moon
Length of Visible Light
Length of Day
Tomorrow will be .
, % of the Moon is Illuminated

Today's Extremes

Country Highs Country Lows

Community

WunderPhotos

Upload Photos

1,809,353 photos uploaded!

WunderBlogs® & News

Nearby

Air Quality

  Air Quality AQ Index Pollutant
Not available.

Snow Depth

Station Depth Elevation

Earthquake Activity

City Distance Mag. Time & Date
Minimum magnitude displayed is 2.5.

Coastal Water Temperatures

Place Temperature

Stations

Nearby Weather Stations

Station Location Temp. Windchill Dew Point Humidity Wind Precip. Elev Updated Type